Alton, Texas
Current Conditions -  °F | °C
As of 1:03 AM on Friday 19 Dec 2014 (Local Time) from KMFE Reporting Station
Haze Haze  
Wind Chill: 62°   Ceiling: 400
Heat Index: 62°   Visibility: 4mi
Dew Point: 62°   Wind: 5mph
Humidity: 100%   Direction: 290°WNW
Pressure: 29.99"   Gusts: NA
Location:  26.2155°N, 98.325°W
Report Text: KMFE 190703Z AUTO 29004KT 4SM BR BKN004 OVC013 17/17 A2999 RMK AO2 T01670167
Loading
Personal Weather Stations






























Interactive Weather Map New forecast layout! Learn more

10-Day Weather Forecast

Advertisements
Track Severe Weather on mobile